Time;durP1;ratioP1;P1;durP2;ratioP2;P2;SDS_P1;SDS_P2;PMS_P1;PMS_P2;Temp;Humidity;BMP_temperature;BMP_pressure;BME280_temperature;BME280_humidity;BME280_pressure;Samples;Min_cycle;Max_cycle;Signal;HPM_P1;HPM_P2
2023/07/11 00:02:15;;;;;;;5.97;3.55;;;22.50;53.20;;;;;;5036846;28;20096;-59
2023/07/11 00:04:40;;;;;;;4.40;3.47;;;22.40;53.30;;;;;;5034141;28;20025;-59
2023/07/11 00:07:06;;;;;;;5.50;3.38;;;22.40;53.20;;;;;;5042802;28;20036;-59
2023/07/11 00:09:32;;;;;;;6.32;3.55;;;22.40;53.30;;;;;;5037008;28;20036;-60
2023/07/11 00:11:57;;;;;;;4.65;3.63;;;22.40;53.40;;;;;;5042184;28;20041;-59
2023/07/11 00:14:23;;;;;;;5.95;3.40;;;22.30;53.50;;;;;;5046044;28;20033;-59
2023/07/11 00:16:49;;;;;;;5.80;3.67;;;22.30;53.50;;;;;;5029009;28;20032;-59
2023/07/11 00:19:19;;;;;;;6.50;3.33;;;22.20;53.40;;;;;;5035514;28;20026;-59
2023/07/11 00:21:45;;;;;;;4.93;3.03;;;22.20;53.50;;;;;;5043673;28;20092;-59
2023/07/11 00:24:11;;;;;;;6.55;3.00;;;22.20;53.50;;;;;;5042738;28;20056;-59
2023/07/11 00:26:37;;;;;;;4.75;3.40;;;22.20;53.50;;;;;;5040804;28;20045;-59
2023/07/11 00:29:19;;;;;;;4.22;3.22;;;22.20;53.50;;;;;;5041142;28;20079;-59
2023/07/11 00:31:44;;;;;;;4.50;3.03;;;22.10;53.70;;;;;;5040131;28;20495;-59
2023/07/11 00:34:10;;;;;;;6.28;3.03;;;22.10;53.00;;;;;;5035516;28;20018;-58
2023/07/11 00:36:36;;;;;;;6.55;3.70;;;22.10;53.10;;;;;;5042685;28;20678;-59
2023/07/11 00:39:03;;;;;;;5.85;3.42;;;22.10;53.10;;;;;;5040815;28;20026;-59
2023/07/11 00:41:29;;;;;;;4.43;3.08;;;22.00;53.30;;;;;;5033436;28;20048;-59
2023/07/11 00:43:54;;;;;;;5.18;3.05;;;22.00;53.40;;;;;;5038599;28;20025;-60
2023/07/11 00:46:20;;;;;;;7.15;3.25;;;22.00;53.20;;;;;;5042652;28;20022;-60
2023/07/11 00:48:50;;;;;;;9.43;3.53;;;22.00;53.00;;;;;;5037887;28;20079;-60
2023/07/11 00:51:33;;;;;;;4.57;2.88;;;21.90;53.30;;;;;;5040838;28;20033;-59
2023/07/11 00:54:00;;;;;;;6.55;3.03;;;22.00;53.60;;;;;;5034526;28;20408;-60
2023/07/11 00:56:29;;;;;;;7.90;3.20;;;21.90;53.00;;;;;;5027366;28;20029;-59
2023/07/11 00:58:57;;;;;;;3.55;3.15;;;21.90;52.80;;;;;;5035249;28;20036;-59
2023/07/11 01:01:23;;;;;;;4.70;3.53;;;21.90;53.00;;;;;;5041010;28;20033;-59
2023/07/11 01:03:51;;;;;;;6.93;3.95;;;21.80;53.20;;;;;;5041763;28;20628;-61
2023/07/11 01:06:21;;;;;;;5.78;4.10;;;21.90;53.60;;;;;;5041302;28;20100;-60
2023/07/11 01:08:49;;;;;;;7.50;4.38;;;21.80;53.90;;;;;;5036301;28;20022;-60
2023/07/11 01:11:15;;;;;;;7.15;3.88;;;21.80;54.10;;;;;;5034322;28;20025;-60
2023/07/11 01:13:40;;;;;;;6.78;4.15;;;21.80;54.20;;;;;;5040785;28;20040;-60
2023/07/11 01:16:07;;;;;;;7.50;4.43;;;21.80;54.30;;;;;;5040149;28;20089;-60
2023/07/11 01:18:33;;;;;;;7.65;4.18;;;21.80;54.30;;;;;;5040237;28;20085;-58
2023/07/11 01:20:58;;;;;;;4.85;3.50;;;21.80;54.40;;;;;;5038747;28;20026;-58
2023/07/11 01:23:24;;;;;;;5.38;3.47;;;21.80;54.40;;;;;;5038803;28;20047;-59
2023/07/11 01:25:57;;;;;;;5.85;3.45;;;21.80;53.90;;;;;;5038231;28;20138;-58
2023/07/11 01:28:25;;;;;;;2.97;2.67;;;21.80;53.50;;;;;;5039141;28;20026;-59
2023/07/11 01:30:50;;;;;;;4.68;3.15;;;21.70;53.40;;;;;;5035099;28;20017;-59
2023/07/11 01:33:16;;;;;;;3.67;2.80;;;21.80;53.30;;;;;;5031831;28;20040;-61
2023/07/11 01:35:42;;;;;;;4.38;3.13;;;21.70;53.10;;;;;;5022559;28;20029;-58
2023/07/11 01:38:08;;;;;;;5.18;3.20;;;21.70;53.00;;;;;;5040172;28;20403;-59
2023/07/11 01:40:33;;;;;;;6.20;3.70;;;21.70;52.90;;;;;;5041564;28;20475;-60
2023/07/11 01:42:59;;;;;;;5.55;3.50;;;21.70;52.90;;;;;;5039023;28;20044;-60
2023/07/11 01:45:25;;;;;;;6.05;3.60;;;21.60;52.90;;;;;;5022000;28;20021;-59
2023/07/11 01:47:50;;;;;;;4.47;3.15;;;21.60;53.30;;;;;;5038498;28;20030;-60
2023/07/11 01:50:16;;;;;;;5.00;3.65;;;21.60;53.50;;;;;;5037100;28;20034;-60
2023/07/11 01:52:41;;;;;;;7.70;3.42;;;21.50;53.80;;;;;;5038889;28;20531;-58
2023/07/11 01:55:10;;;;;;;6.40;3.72;;;21.50;54.00;;;;;;5041683;28;20053;-58
2023/07/11 01:57:35;;;;;;;5.22;3.53;;;21.50;54.20;;;;;;5040568;28;20025;-59
2023/07/11 02:02:48;;;;;;;4.63;3.47;;;21.50;55.00;;;;;;4925050;23;20058;-90
2023/07/11 02:05:14;;;;;;;12.15;3.90;;;21.40;54.00;;;;;;4988020;28;20045;-89
2023/07/11 02:07:41;;;;;;;6.25;3.70;;;21.40;53.90;;;;;;4989040;28;20030;-91
2023/07/11 02:10:08;;;;;;;5.13;3.83;;;21.40;53.80;;;;;;4990770;28;20056;-90
2023/07/11 02:12:33;;;;;;;5.95;4.03;;;21.40;53.90;;;;;;4987103;28;20057;-89
2023/07/11 02:14:59;;;;;;;8.20;3.80;;;21.40;53.90;;;;;;4992877;28;20476;-89
2023/07/11 02:17:25;;;;;;;6.47;3.97;;;21.40;54.50;;;;;;4998574;28;20037;-89
2023/07/11 02:19:51;;;;;;;7.28;3.90;;;21.40;54.10;;;;;;4988743;28;20026;-89
2023/07/11 02:22:17;;;;;;;6.70;3.50;;;21.40;54.10;;;;;;4992172;28;20041;-89
2023/07/11 02:24:43;;;;;;;5.47;3.28;;;21.40;54.30;;;;;;4991486;28;20088;-89
2023/07/11 02:27:11;;;;;;;6.40;3.35;;;21.40;54.40;;;;;;4992294;28;20405;-89
2023/07/11 02:29:37;;;;;;;4.93;3.63;;;21.40;54.50;;;;;;5002822;28;20213;-89
2023/07/11 02:32:04;;;;;;;8.38;4.00;;;21.40;54.40;;;;;;4987297;28;20034;-89
2023/07/11 02:34:29;;;;;;;4.55;3.67;;;21.30;54.60;;;;;;4987474;28;20030;-89
2023/07/11 02:36:55;;;;;;;6.63;3.83;;;21.30;54.70;;;;;;4989702;28;20022;-90
2023/07/11 02:39:21;;;;;;;6.43;3.90;;;21.30;54.70;;;;;;4990214;28;20026;-90
2023/07/11 02:41:46;;;;;;;5.05;3.67;;;21.30;55.50;;;;;;4994343;28;20487;-89
2023/07/11 02:44:12;;;;;;;6.15;3.88;;;21.30;55.70;;;;;;4991845;28;20038;-90
2023/07/11 02:46:38;;;;;;;5.63;3.38;;;21.30;55.00;;;;;;4993264;28;20121;-89
2023/07/11 02:49:08;;;;;;;6.20;4.07;;;21.30;55.10;;;;;;4986555;28;20054;-88
2023/07/11 02:51:35;;;;;;;6.90;4.25;;;21.30;55.10;;;;;;4991746;28;20482;-90
2023/07/11 02:54:01;;;;;;;6.63;3.50;;;21.30;55.20;;;;;;5005528;28;20072;-90
2023/07/11 02:56:27;;;;;;;6.10;3.92;;;21.20;55.20;;;;;;4995031;28;20030;-90
2023/07/11 02:58:52;;;;;;;6.28;3.88;;;21.20;55.00;;;;;;4986550;28;20132;-89
2023/07/11 03:01:18;;;;;;;5.78;3.78;;;21.30;55.10;;;;;;4987801;28;20057;-89
2023/07/11 03:03:45;;;;;;;6.07;3.90;;;21.30;55.40;;;;;;4987440;28;20092;-88
2023/07/11 03:06:11;;;;;;;5.85;3.90;;;21.20;55.40;;;;;;4995548;28;20026;-89
2023/07/11 03:08:37;;;;;;;7.00;3.85;;;21.30;55.50;;;;;;4995599;28;20084;-89
2023/07/11 03:11:03;;;;;;;6.35;3.78;;;21.30;55.60;;;;;;4994231;28;20422;-88
2023/07/11 03:13:28;;;;;;;9.00;3.72;;;21.30;55.70;;;;;;4994626;28;20480;-88
2023/07/11 03:15:54;;;;;;;6.82;3.97;;;21.30;55.50;;;;;;4989519;28;20111;-89
2023/07/11 03:18:20;;;;;;;5.38;4.18;;;21.30;55.60;;;;;;4993540;28;20464;-90
2023/07/11 03:20:46;;;;;;;6.18;4.28;;;21.30;55.70;;;;;;5003778;28;20033;-88
2023/07/11 03:23:14;;;;;;;7.55;4.03;;;21.30;55.70;;;;;;4992988;28;20476;-89
2023/07/11 03:25:40;;;;;;;7.18;4.47;;;21.30;55.70;;;;;;4997665;28;20041;-89
2023/07/11 03:28:07;;;;;;;8.15;4.38;;;21.30;55.70;;;;;;4996187;28;20493;-88
2023/07/11 03:30:34;;;;;;;5.30;4.00;;;21.30;55.80;;;;;;4991942;28;20091;-88
2023/07/11 03:33:00;;;;;;;5.18;4.05;;;21.30;55.90;;;;;;4994414;28;20465;-88
2023/07/11 03:35:29;;;;;;;5.38;3.72;;;21.30;56.00;;;;;;4988619;28;20025;-89
2023/07/11 03:37:55;;;;;;;6.28;3.90;;;21.20;56.20;;;;;;4997073;28;20358;-89
2023/07/11 03:40:21;;;;;;;5.90;3.75;;;21.20;56.10;;;;;;4999439;28;20030;-89
2023/07/11 03:42:46;;;;;;;8.27;4.88;;;21.20;56.30;;;;;;4992862;28;20030;-87
2023/07/11 03:45:12;;;;;;;13.35;4.07;;;21.20;56.40;;;;;;4994228;28;20121;-88
2023/07/11 03:47:38;;;;;;;5.55;3.72;;;21.20;56.40;;;;;;4994382;28;20461;-90
2023/07/11 03:50:04;;;;;;;6.63;3.90;;;21.20;56.40;;;;;;4991958;28;20110;-91
2023/07/11 03:52:30;;;;;;;6.57;3.78;;;21.30;56.40;;;;;;5000283;28;20033;-90
2023/07/11 03:54:55;;;;;;;5.78;4.35;;;21.30;56.20;;;;;;4994194;28;20026;-90
2023/07/11 03:57:21;;;;;;;6.10;3.85;;;21.30;56.20;;;;;;4994513;28;20030;-89
2023/07/11 03:59:47;;;;;;;5.50;4.10;;;21.30;56.20;;;;;;4993295;28;20080;-89
2023/07/11 04:02:13;;;;;;;6.97;3.88;;;21.30;56.10;;;;;;4993911;28;20046;-90
2023/07/11 04:04:38;;;;;;;5.45;3.88;;;21.30;56.20;;;;;;4991215;28;20041;-89
2023/07/11 04:07:05;;;;;;;6.03;3.78;;;21.30;56.20;;;;;;4991810;28;20022;-90
2023/07/11 04:09:31;;;;;;;7.35;3.95;;;21.20;56.20;;;;;;4997954;28;20112;-88
2023/07/11 04:11:56;;;;;;;7.25;4.18;;;21.20;56.30;;;;;;4999494;28;20080;-88
2023/07/11 04:14:22;;;;;;;5.68;4.10;;;21.20;56.60;;;;;;4989881;28;20461;-89
2023/07/11 04:16:48;;;;;;;5.68;3.70;;;21.20;56.70;;;;;;4989319;28;20464;-88
2023/07/11 04:19:14;;;;;;;5.72;3.92;;;21.30;56.50;;;;;;4994751;28;20493;-89
2023/07/11 04:21:39;;;;;;;6.10;3.97;;;21.30;56.80;;;;;;4991881;28;20412;-90
2023/07/11 04:24:05;;;;;;;5.85;3.83;;;21.30;56.90;;;;;;4991139;28;20038;-88
2023/07/11 04:26:31;;;;;;;6.43;4.07;;;21.30;56.90;;;;;;4995993;28;20038;-88
2023/07/11 04:28:57;;;;;;;8.77;3.90;;;21.40;56.70;;;;;;4995942;28;20079;-90
2023/07/11 04:31:23;;;;;;;6.50;4.18;;;21.40;56.60;;;;;;4994175;28;20433;-88
2023/07/11 04:33:48;;;;;;;10.98;4.50;;;21.40;56.80;;;;;;4995207;28;20034;-89
2023/07/11 04:36:15;;;;;;;7.32;4.15;;;21.40;56.90;;;;;;4996855;28;20109;-88
2023/07/11 04:38:42;;;;;;;6.38;4.05;;;21.50;56.80;;;;;;4998148;28;20029;-89
2023/07/11 04:41:10;;;;;;;5.60;3.75;;;21.50;56.70;;;;;;5008725;28;20402;-89
2023/07/11 04:43:35;;;;;;;8.88;4.00;;;21.50;56.60;;;;;;4989417;28;20065;-89
2023/07/11 04:46:03;;;;;;;5.30;4.03;;;21.60;56.50;;;;;;4995414;28;20022;-90
2023/07/11 04:48:30;;;;;;;6.10;4.20;;;21.60;56.40;;;;;;4998726;28;20029;-89
2023/07/11 04:50:57;;;;;;;5.97;4.20;;;21.60;56.60;;;;;;4992175;28;20465;-88
2023/07/11 04:53:23;;;;;;;6.28;4.25;;;21.60;56.70;;;;;;4995111;28;20029;-89
2023/07/11 04:55:58;;;;;;;6.38;4.05;;;21.60;57.20;;;;;;4995759;28;20084;-91
2023/07/11 04:58:25;;;;;;;6.22;4.10;;;21.60;56.70;;;;;;5004048;28;20466;-89
2023/07/11 05:00:51;;;;;;;7.05;3.90;;;21.70;56.50;;;;;;5002396;28;20041;-90
2023/07/11 05:03:17;;;;;;;7.15;3.88;;;21.70;56.60;;;;;;4993264;28;20057;-89
2023/07/11 05:05:43;;;;;;;5.82;3.83;;;21.70;56.70;;;;;;4989680;28;20034;-89
2023/07/11 05:08:09;;;;;;;5.70;3.65;;;21.70;56.70;;;;;;4993382;28;20045;-91
2023/07/11 05:10:34;;;;;;;6.80;4.43;;;21.80;56.70;;;;;;4990166;28;20385;-90
2023/07/11 05:13:00;;;;;;;6.35;4.25;;;21.80;56.70;;;;;;4989925;28;20496;-89
2023/07/11 05:15:25;;;;;;;6.43;4.35;;;21.80;56.80;;;;;;4988753;28;20050;-90
2023/07/11 05:17:51;;;;;;;5.38;3.90;;;21.90;57.10;;;;;;4989842;28;20037;-89
2023/07/11 05:20:17;;;;;;;5.57;3.67;;;22.00;57.00;;;;;;4989485;28;20084;-90
2023/07/11 05:22:43;;;;;;;9.02;4.07;;;22.10;57.00;;;;;;4992027;28;20109;-89
2023/07/11 05:25:09;;;;;;;6.47;4.28;;;22.10;56.80;;;;;;4992277;28;20041;-89
2023/07/11 05:27:34;;;;;;;5.80;4.15;;;22.20;56.90;;;;;;4989456;28;20033;-90
2023/07/11 05:30:00;;;;;;;5.82;3.60;;;22.30;56.70;;;;;;4989721;28;20386;-89
2023/07/11 05:32:26;;;;;;;6.55;3.85;;;22.40;56.50;;;;;;4988643;28;20082;-88
2023/07/11 05:34:51;;;;;;;8.48;4.20;;;22.50;57.20;;;;;;4988861;28;20386;-89
2023/07/11 05:37:17;;;;;;;5.70;3.72;;;22.60;56.50;;;;;;4989931;28;20085;-90
2023/07/11 05:39:43;;;;;;;8.93;4.25;;;22.70;56.50;;;;;;4988868;28;20031;-89
2023/07/11 05:42:09;;;;;;;9.50;3.80;;;22.80;56.20;;;;;;4989287;28;20560;-89
2023/07/11 05:44:35;;;;;;;8.50;4.15;;;23.00;56.10;;;;;;4991301;28;20117;-88
2023/07/11 05:47:00;;;;;;;12.18;4.55;;;23.10;55.80;;;;;;5006414;28;20049;-88
2023/07/11 05:49:26;;;;;;;7.60;4.03;;;23.20;55.50;;;;;;5009671;28;20081;-92
2023/07/11 05:51:52;;;;;;;6.05;4.28;;;23.30;55.20;;;;;;5012976;28;20070;-91
2023/07/11 05:54:19;;;;;;;7.68;3.97;;;23.40;55.60;;;;;;5006943;28;20042;-88
2023/07/11 05:56:44;;;;;;;8.05;3.63;;;23.50;54.90;;;;;;5006804;28;20026;-87
2023/07/11 05:59:10;;;;;;;6.20;3.92;;;23.60;54.90;;;;;;5000658;28;20027;-84
2023/07/11 06:01:36;;;;;;;7.93;4.25;;;23.70;54.70;;;;;;4999461;28;20041;-84
2023/07/11 06:04:08;;;;;;;9.20;3.83;;;23.80;54.50;;;;;;5003638;28;20497;-89
2023/07/11 06:06:41;;;;;;;8.30;3.67;;;23.90;54.20;;;;;;5003767;28;20061;-88
2023/07/11 06:09:10;;;;;;;9.85;3.72;;;24.00;54.20;;;;;;4998185;28;20038;-89
2023/07/11 06:11:36;;;;;;;11.90;4.03;;;24.20;54.00;;;;;;4998548;28;20037;-90
2023/07/11 06:14:02;;;;;;;6.25;3.75;;;24.30;53.70;;;;;;4994158;28;20445;-90
2023/07/11 06:16:27;;;;;;;7.68;3.67;;;24.50;53.50;;;;;;4995794;28;20025;-90
2023/07/11 06:18:55;;;;;;;10.02;4.05;;;24.60;53.30;;;;;;4995674;28;20049;-93
2023/07/11 06:21:20;;;;;;;6.18;4.28;;;24.70;53.00;;;;;;4997085;28;20072;-89
2023/07/11 06:23:47;;;;;;;7.35;3.83;;;24.80;52.60;;;;;;4997600;28;20454;-90
2023/07/11 06:26:14;;;;;;;8.00;3.95;;;25.00;52.70;;;;;;4990496;28;20491;-89
2023/07/11 06:28:39;;;;;;;7.47;3.72;;;25.10;52.30;;;;;;4992396;28;20037;-89
2023/07/11 06:31:06;;;;;;;9.40;4.05;;;25.20;51.60;;;;;;4995532;28;20038;-90
2023/07/11 06:33:32;;;;;;;12.75;4.00;;;25.30;51.30;;;;;;5000925;28;20474;-89
2023/07/11 06:35:58;;;;;;;7.10;4.03;;;25.50;51.20;;;;;;4997774;28;20052;-89
2023/07/11 06:38:24;;;;;;;6.30;3.85;;;25.60;51.00;;;;;;4994338;28;20497;-89
2023/07/11 06:40:55;;;;;;;10.73;3.47;;;25.70;50.90;;;;;;4993487;28;20065;-88
2023/07/11 06:43:23;;;;;;;6.28;3.65;;;25.80;50.80;;;;;;4993040;28;20026;-89
2023/07/11 06:45:53;;;;;;;5.75;3.55;;;26.00;50.80;;;;;;5000561;28;20065;-90
2023/07/11 06:48:20;;;;;;;8.18;3.55;;;26.20;50.30;;;;;;4996599;28;20034;-89
2023/07/11 06:50:49;;;;;;;8.18;3.50;;;26.30;50.00;;;;;;4994698;28;20038;-90
2023/07/11 06:53:14;;;;;;;8.25;3.78;;;26.50;49.80;;;;;;4993692;28;20036;-90
2023/07/11 06:55:51;;;;;;;7.53;3.47;;;26.70;49.60;;;;;;4993724;28;20026;-89
2023/07/11 06:58:18;;;;;;;6.60;3.70;;;26.90;49.00;;;;;;4995174;28;20029;-88
2023/07/11 07:00:50;;;;;;;6.15;3.38;;;27.00;48.80;;;;;;5000297;28;20033;-89
2023/07/11 07:03:16;;;;;;;5.25;3.30;;;27.10;48.60;;;;;;4995337;28;20062;-89
2023/07/11 07:05:53;;;;;;;4.15;2.75;;;27.30;48.50;;;;;;4998522;28;20026;-89
2023/07/11 07:08:21;;;;;;;12.82;3.60;;;27.50;48.00;;;;;;4994054;28;20048;-89
2023/07/11 07:10:48;;;;;;;5.50;3.20;;;27.60;47.90;;;;;;4990324;28;20040;-89
2023/07/11 07:13:15;;;;;;;8.38;3.38;;;27.70;48.00;;;;;;4993414;28;20030;-89
2023/07/11 07:15:41;;;;;;;7.07;3.40;;;27.80;47.20;;;;;;4996149;28;20385;-89
2023/07/11 07:18:07;;;;;;;8.57;3.65;;;27.90;46.70;;;;;;5004292;28;20033;-89
2023/07/11 07:20:34;;;;;;;4.10;2.95;;;28.10;46.50;;;;;;4994386;28;20033;-90
2023/07/11 07:22:59;;;;;;;11.30;3.58;;;28.20;47.30;;;;;;4990271;28;20045;-88
2023/07/11 07:25:25;;;;;;;9.75;3.72;;;28.30;46.30;;;;;;4988143;28;20037;-90
2023/07/11 07:27:51;;;;;;;4.97;3.10;;;28.40;45.70;;;;;;4993310;28;20064;-90
2023/07/11 07:30:16;;;;;;;6.90;3.65;;;28.60;45.20;;;;;;4992619;28;20030;-89
2023/07/11 07:32:42;;;;;;;5.07;3.22;;;28.70;44.70;;;;;;4990953;28;20049;-90
2023/07/11 07:35:08;;;;;;;4.28;3.30;;;28.80;43.80;;;;;;4988359;28;20037;-90
2023/07/11 07:37:35;;;;;;;6.28;3.65;;;28.80;43.80;;;;;;4990471;28;20117;-90
2023/07/11 07:40:01;;;;;;;5.00;3.03;;;28.90;43.80;;;;;;4990472;28;20025;-90
2023/07/11 07:42:26;;;;;;;8.63;3.83;;;29.00;44.00;;;;;;4993121;28;20428;-89
2023/07/11 07:44:54;;;;;;;7.22;3.17;;;29.00;43.90;;;;;;4989223;28;20109;-89
2023/07/11 07:47:20;;;;;;;7.22;3.20;;;29.10;43.80;;;;;;4998063;28;20030;-89
2023/07/11 07:49:45;;;;;;;5.05;3.13;;;29.30;43.60;;;;;;4992991;28;20355;-89
2023/07/11 07:52:11;;;;;;;7.03;3.28;;;29.40;44.00;;;;;;4992744;28;20393;-89
2023/07/11 07:54:37;;;;;;;8.40;3.60;;;29.50;43.90;;;;;;4995113;28;20022;-89
2023/07/11 07:57:02;;;;;;;7.45;3.60;;;29.60;43.50;;;;;;4994259;28;20026;-89
2023/07/11 07:59:29;;;;;;;7.80;3.53;;;29.70;42.80;;;;;;4988749;28;20037;-90
2023/07/11 08:01:55;;;;;;;4.43;3.10;;;29.80;42.80;;;;;;4988139;28;20485;-89
2023/07/11 08:04:20;;;;;;;9.68;3.08;;;29.90;42.80;;;;;;4987211;28;20048;-88
2023/07/11 08:06:49;;;;;;;4.88;2.80;;;30.00;42.40;;;;;;4994878;28;20031;-89
2023/07/11 08:09:15;;;;;;;7.15;3.10;;;30.10;41.80;;;;;;4989721;28;20521;-89
2023/07/11 08:11:44;;;;;;;4.20;2.88;;;30.30;41.40;;;;;;4997829;28;20084;-89
2023/07/11 08:14:09;;;;;;;3.10;2.53;;;30.40;41.40;;;;;;4995646;28;20033;-89
2023/07/11 08:16:37;;;;;;;5.10;3.08;;;30.50;41.60;;;;;;4993140;28;20026;-89
2023/07/11 08:19:04;;;;;;;3.25;2.60;;;30.60;41.00;;;;;;4995196;28;20030;-89
2023/07/11 08:21:30;;;;;;;7.10;2.42;;;30.70;40.70;;;;;;5006142;28;20034;-89
2023/07/11 08:23:56;;;;;;;3.05;2.50;;;30.80;40.50;;;;;;4990626;28;20448;-89
2023/07/11 08:26:22;;;;;;;4.82;2.97;;;30.90;39.80;;;;;;4994431;28;20041;-89
2023/07/11 08:28:52;;;;;;;6.03;3.58;;;30.90;39.80;;;;;;4992704;28;20500;-88
2023/07/11 08:31:18;;;;;;;7.18;2.63;;;31.10;39.90;;;;;;4990905;28;20488;-90
2023/07/11 08:33:44;;;;;;;10.68;3.88;;;31.20;40.00;;;;;;4990880;28;20450;-88
2023/07/11 08:36:09;;;;;;;6.90;3.03;;;31.20;40.00;;;;;;4996331;28;20034;-88
2023/07/11 08:38:35;;;;;;;7.45;3.13;;;31.40;39.80;;;;;;4996102;28;20050;-88
2023/07/11 08:41:29;;;;;;;8.98;3.17;;;31.50;39.80;;;;;;4991311;28;20046;-87
2023/07/11 08:44:02;;;;;;;4.80;2.95;;;31.60;39.80;;;;;;4994006;28;20092;-88
2023/07/11 08:46:29;;;;;;;4.03;2.40;;;31.70;39.70;;;;;;4990893;28;20041;-88
2023/07/11 08:49:00;;;;;;;7.60;3.03;;;31.80;39.60;;;;;;4993616;28;20069;-89
2023/07/11 08:51:36;;;;;;;5.10;2.58;;;31.90;38.80;;;;;;4995090;28;20033;-90
2023/07/11 08:54:23;;;;;;;3.60;2.83;;;32.00;38.00;;;;;;5000883;28;20036;-88
2023/07/11 08:56:50;;;;;;;5.97;2.42;;;32.10;37.50;;;;;;5006467;28;20053;-88
2023/07/11 08:59:21;;;;;;;5.68;2.58;;;32.20;38.30;;;;;;5010403;28;20034;-89
2023/07/11 09:02:23;;;;;;;4.30;2.80;;;32.30;38.40;;;;;;4989171;28;20045;-89
2023/07/11 09:04:53;;;;;;;4.30;2.80;;;32.40;37.70;;;;;;4967062;28;20050;-89
2023/07/11 09:07:38;;;;;;;5.72;3.17;;;32.50;37.70;;;;;;4998355;28;20184;-89
2023/07/11 09:10:19;;;;;;;3.88;2.63;;;32.60;37.00;;;;;;4997993;28;20034;-89
2023/07/11 09:12:52;;;;;;;6.70;2.97;;;32.70;36.20;;;;;;4988544;28;20041;-88
2023/07/11 09:15:51;;;;;;;4.82;2.78;;;32.80;37.60;;;;;;4998898;28;20042;-88
2023/07/11 09:18:38;;;;;;;4.47;3.15;;;32.80;37.60;;;;;;4935888;28;20041;-88
2023/07/11 09:21:20;;;;;;;5.15;3.05;;;33.00;37.00;;;;;;4955354;28;20514;-88
2023/07/11 09:23:53;;;;;;;8.50;3.40;;;33.10;37.00;;;;;;4942950;29;20047;-88
2023/07/11 09:26:27;;;;;;;10.15;2.97;;;33.20;37.40;;;;;;4932852;28;20058;-87
2023/07/11 09:29:06;;;;;;;3.72;3.03;;;33.20;37.50;;;;;;4933179;28;20111;-88
2023/07/11 09:31:46;;;;;;;7.53;2.92;;;33.30;37.20;;;;;;4944366;28;20407;-87
2023/07/11 09:34:47;;;;;;;8.15;3.25;;;33.40;37.80;;;;;;4950210;28;20034;-88
2023/07/11 09:37:37;;;;;;;7.07;3.08;;;33.50;37.80;;;;;;4937130;28;20066;-88
2023/07/11 09:40:16;;;;;;;6.28;3.30;;;33.50;37.30;;;;;;4943948;28;20062;-88
2023/07/11 09:42:51;;;;;;;9.23;3.55;;;33.60;37.50;;;;;;4931956;28;20050;-88
2023/07/11 09:45:22;;;;;;;10.05;3.90;;;33.70;38.20;;;;;;4934272;28;20027;-87
2023/07/11 11:07:14;;;;;;;8.27;4.43;;;33.00;41.10;;;;;;4820891;22;1455121;-88
2023/07/11 11:09:46;;;;;;;7.30;4.00;;;33.10;41.40;;;;;;5015247;28;20037;-89
2023/07/11 11:12:14;;;;;;;7.57;3.97;;;33.40;41.00;;;;;;5021884;28;20021;-87
2023/07/11 11:14:49;;;;;;;6.00;3.63;;;33.80;40.20;;;;;;5023680;28;20033;-88
2023/07/11 11:17:30;;;;;;;6.70;3.90;;;34.20;39.40;;;;;;5017845;28;20029;-88
2023/07/11 11:20:25;;;;;;;6.90;4.18;;;34.60;38.10;;;;;;5030028;28;20032;-89
2023/07/11 11:23:00;;;;;;;6.13;3.95;;;34.90;37.90;;;;;;5020220;28;20041;-87
2023/07/11 11:25:36;;;;;;;5.90;4.07;;;35.20;36.80;;;;;;5015398;28;20076;-88
2023/07/11 11:28:24;;;;;;;6.63;4.25;;;35.40;36.20;;;;;;5026670;28;20176;-88
2023/07/11 11:30:57;;;;;;;5.90;4.15;;;35.60;35.20;;;;;;5046330;28;20036;-89
2023/07/11 11:33:32;;;;;;;7.38;3.75;;;35.80;35.80;;;;;;5030809;28;20025;-88
2023/07/11 11:36:21;;;;;;;4.50;3.25;;;35.90;34.50;;;;;;5031897;28;20479;-89
2023/07/11 11:38:59;;;;;;;8.43;4.68;;;36.00;35.70;;;;;;5030137;28;20486;-91
2023/07/11 11:41:46;;;;;;;7.55;4.15;;;36.20;36.00;;;;;;5030479;28;20147;-88
2023/07/11 11:44:21;;;;;;;9.00;4.10;;;36.40;35.70;;;;;;5033286;28;20482;-89
2023/07/11 11:46:49;;;;;;;9.60;3.80;;;36.50;34.10;;;;;;5043611;28;20036;-91
2023/07/11 11:49:16;;;;;;;7.50;3.50;;;36.60;35.80;;;;;;5034688;28;20037;-89
2023/07/11 11:51:44;;;;;;;6.38;3.95;;;36.80;35.20;;;;;;5034580;28;20056;-88
2023/07/11 11:54:22;;;;;;;7.43;3.40;;;36.90;34.40;;;;;;5028707;28;20031;-88
2023/07/11 11:56:52;;;;;;;5.18;3.33;;;37.00;34.00;;;;;;5032847;28;20038;-90
2023/07/11 11:59:24;;;;;;;5.55;3.63;;;37.10;34.30;;;;;;5052546;28;20025;-91
2023/07/11 12:01:53;;;;;;;7.22;4.20;;;37.10;33.80;;;;;;5066874;28;20025;-92
2023/07/11 12:04:32;;;;;;;5.88;3.47;;;37.10;32.90;;;;;;5052117;28;20104;-90
2023/07/11 12:07:13;;;;;;;7.93;3.88;;;37.20;33.30;;;;;;5045344;28;20063;-88
2023/07/11 12:09:52;;;;;;;7.50;3.70;;;37.20;32.20;;;;;;5027703;28;20037;-88
2023/07/11 12:12:22;;;;;;;7.57;3.60;;;37.20;32.90;;;;;;5037009;28;20029;-88
2023/07/11 12:14:51;;;;;;;5.60;3.70;;;37.30;33.70;;;;;;5032535;28;20044;-88
2023/07/11 12:17:29;;;;;;;9.05;3.70;;;37.40;33.50;;;;;;5016694;28;20037;-88
2023/07/11 12:20:01;;;;;;;6.22;3.70;;;37.50;33.10;;;;;;5015035;28;20041;-89
2023/07/11 12:22:38;;;;;;;8.68;3.85;;;37.70;32.80;;;;;;5013041;28;20029;-88
2023/07/11 12:25:07;;;;;;;6.25;3.50;;;37.80;32.50;;;;;;5004103;28;20029;-88
2023/07/11 12:27:32;;;;;;;6.70;3.78;;;38.00;32.60;;;;;;5026163;28;20482;-88
2023/07/11 12:30:29;;;;;;;8.73;3.80;;;38.10;32.70;;;;;;5012973;28;20124;-88
2023/07/11 12:33:19;;;;;;;6.85;3.55;;;38.20;32.00;;;;;;4999228;28;20358;-89
2023/07/11 12:35:46;;;;;;;11.30;3.50;;;38.30;31.50;;;;;;5013482;28;20025;-90
2023/07/11 12:38:22;;;;;;;6.03;3.90;;;38.30;31.40;;;;;;5030529;28;20459;-88
2023/07/11 12:41:16;;;;;;;4.80;3.55;;;38.10;30.70;;;;;;5017990;28;20029;-89
2023/07/11 12:43:46;;;;;;;6.25;3.42;;;37.90;30.60;;;;;;5011572;28;20381;-89
2023/07/11 12:46:22;;;;;;;5.63;3.33;;;37.70;30.70;;;;;;5013670;28;20060;-89
2023/07/11 12:48:50;;;;;;;6.32;3.78;;;37.40;31.10;;;;;;5008601;28;20116;-89
2023/07/11 12:51:24;;;;;;;10.30;3.70;;;37.10;31.20;;;;;;5010803;28;20025;-89
2023/07/11 12:54:04;;;;;;;6.45;3.65;;;36.80;31.20;;;;;;5007977;28;20174;-89
2023/07/11 12:56:30;;;;;;;8.18;3.65;;;36.60;31.60;;;;;;5009070;28;20840;-89
2023/07/11 12:58:56;;;;;;;6.90;4.13;;;36.30;31.90;;;;;;5013479;28;20037;-90
2023/07/11 13:01:22;;;;;;;6.95;3.80;;;36.10;32.40;;;;;;5012220;28;20053;-89
2023/07/11 13:03:48;;;;;;;5.60;3.83;;;35.90;32.60;;;;;;5029917;28;20101;-91
2023/07/11 13:06:26;;;;;;;5.78;3.80;;;35.70;32.80;;;;;;5019175;28;20057;-90
2023/07/11 13:08:52;;;;;;;5.43;3.80;;;35.50;33.60;;;;;;5014140;28;20124;-89
2023/07/11 13:11:24;;;;;;;5.65;3.70;;;35.40;34.40;;;;;;5013244;28;20503;-89
2023/07/11 13:13:51;;;;;;;10.10;4.20;;;35.20;35.00;;;;;;5028047;28;20064;-91
2023/07/11 13:16:23;;;;;;;11.48;4.72;;;35.00;35.90;;;;;;5039431;28;20017;-92
2023/07/11 13:18:50;;;;;;;11.75;4.60;;;34.80;37.80;;;;;;5034621;28;20039;-92
2023/07/11 13:21:17;;;;;;;10.05;4.70;;;34.60;38.70;;;;;;5035053;28;20038;-92
2023/07/11 13:23:45;;;;;;;10.13;4.20;;;34.40;39.40;;;;;;5050575;28;20218;-92
2023/07/11 13:26:23;;;;;;;8.45;4.80;;;34.20;40.40;;;;;;5035008;28;20036;-91
2023/07/11 13:29:06;;;;;;;5.32;4.05;;;34.10;41.10;;;;;;5034031;28;20029;-92
2023/07/11 13:31:33;;;;;;;6.13;3.65;;;34.00;41.70;;;;;;5030281;28;20034;-92
2023/07/11 13:34:13;;;;;;;10.98;4.10;;;34.10;42.80;;;;;;5038151;28;20042;-91
2023/07/11 13:36:42;;;;;;;10.02;4.00;;;34.20;41.80;;;;;;5037790;28;20025;-92
2023/07/11 13:39:12;;;;;;;6.93;3.80;;;34.30;41.40;;;;;;5029744;28;20037;-92
2023/07/11 13:41:43;;;;;;;6.30;3.35;;;34.50;42.00;;;;;;5020615;28;20030;-90
2023/07/11 13:44:15;;;;;;;6.85;3.88;;;34.70;42.00;;;;;;5022532;28;20069;-91
2023/07/11 13:46:43;;;;;;;11.27;4.07;;;34.90;41.10;;;;;;5025205;28;20033;-90
2023/07/11 13:49:26;;;;;;;6.65;4.07;;;35.20;40.40;;;;;;5032933;28;20037;-91
2023/07/11 13:51:58;;;;;;;4.65;3.55;;;35.50;39.30;;;;;;5029283;28;20117;-91
2023/07/11 13:54:36;;;;;;;8.82;3.95;;;35.80;39.90;;;;;;5026939;28;20095;-90
2023/07/11 13:57:03;;;;;;;6.55;3.70;;;36.00;39.60;;;;;;5028452;28;20036;-90
2023/07/11 13:59:30;;;;;;;8.85;4.10;;;36.30;39.20;;;;;;5030833;28;20029;-90
2023/07/11 14:01:56;;;;;;;8.98;4.13;;;36.60;37.80;;;;;;5033003;28;20093;-91
2023/07/11 14:04:34;;;;;;;8.48;3.50;;;36.80;37.20;;;;;;5034627;28;20037;-91
2023/07/11 14:07:01;;;;;;;5.82;3.33;;;37.10;36.30;;;;;;5032949;28;20046;-91
2023/07/11 14:09:27;;;;;;;8.07;3.72;;;37.30;36.50;;;;;;5033662;28;20021;-91
2023/07/11 14:11:53;;;;;;;6.30;3.72;;;37.50;36.20;;;;;;5031836;28;20030;-90
2023/07/11 14:14:21;;;;;;;9.35;3.63;;;37.70;36.50;;;;;;5034563;28;20025;-91
2023/07/11 14:16:47;;;;;;;6.68;3.22;;;37.90;36.40;;;;;;5025880;28;20029;-92
2023/07/11 14:19:33;;;;;;;5.57;3.38;;;38.20;36.60;;;;;;5035436;28;20032;-92